Terminal Aerodrome Forecast
Issued by NWS

Home | Current Version | Previous Version | Text Only | Print | Product List | Glossary On
Versions: 1 2 3 4 5 6 7 8 9 10 11 12 13 14 15 16 17 18 19 20 21 22 23
000
FTUS43 KILX 270500 CCA
TAFBMI
TAF COR
KBMI 270539Z 2706/2806 23003KT 2SM BR OVC007
     FM270900 33007KT 3SM BR OVC007
     FM271500 36008G15KT 5SM BR OVC007
     FM272000 03006KT P6SM BKN008
     FM280300 VRB05KT P6SM BKN012=

USA.gov is the U.S. government's official web portal to all federal, state and local government web resources and services.